createdAt,value
2023-02-20T00:00:56.790Z,78.76
2023-02-20T00:05:59.466Z,78.97
2023-02-20T00:11:02.027Z,78.57
2023-02-20T00:16:05.408Z,78.63
2023-02-20T00:21:07.999Z,78.67
2023-02-20T00:26:12.592Z,78.45
2023-02-20T00:31:20.123Z,78.77
2023-02-20T00:36:22.948Z,78.50
2023-02-20T00:41:25.539Z,78.65
2023-02-20T00:46:28.115Z,78.31
2023-02-20T00:51:31.618Z,78.30
2023-02-20T00:56:34.343Z,78.12
2023-02-20T01:01:37.816Z,78.54
2023-02-20T01:06:40.441Z,78.09
2023-02-20T01:11:44.926Z,78.55
2023-02-20T01:16:51.740Z,78.48
2023-02-20T01:21:54.753Z,78.52
2023-02-20T01:26:57.379Z,78.50
2023-02-20T01:31:59.962Z,78.48
2023-02-20T01:37:02.725Z,78.33
2023-02-20T01:42:07.866Z,78.23
2023-02-20T01:47:15.819Z,78.31
2023-02-20T01:52:24.103Z,78.08
2023-02-20T01:57:30.252Z,78.33
2023-02-20T02:02:38.100Z,78.32
2023-02-20T02:07:41.266Z,78.31
2023-02-20T02:12:48.940Z,78.15
2023-02-20T02:45:02.498Z,78.83
2023-02-20T02:50:12.826Z,78.55
2023-02-20T03:00:36.111Z,78.71
2023-02-20T03:16:32.575Z,77.68
2023-02-20T03:21:37.411Z,77.88
2023-02-20T03:26:42.749Z,77.65
2023-02-20T03:32:12.678Z,77.65
2023-02-20T03:37:40.452Z,77.72
2023-02-20T03:43:07.683Z,77.76
2023-02-20T03:48:24.311Z,77.31
2023-02-20T03:53:28.064Z,77.34
2023-02-20T03:58:37.435Z,76.97
2023-02-20T04:03:44.628Z,77.10
2023-02-20T04:08:55.514Z,77.35
2023-02-20T04:14:00.625Z,77.29
2023-02-20T04:19:04.887Z,77.35
2023-02-20T04:24:13.191Z,77.20
2023-02-20T04:29:16.040Z,77.16
2023-02-20T04:34:18.742Z,77.34
2023-02-20T04:39:22.879Z,77.46
2023-02-20T04:44:33.963Z,77.16
2023-02-20T04:49:40.787Z,77.37
2023-02-20T04:54:45.885Z,77.59
2023-02-20T04:59:50.556Z,77.95
2023-02-20T05:04:53.818Z,77.79
2023-02-20T05:09:56.374Z,77.69
2023-02-20T05:14:58.957Z,77.77
2023-02-20T05:20:02.138Z,77.49
2023-02-20T05:25:07.400Z,77.06
2023-02-20T05:30:11.209Z,77.71
2023-02-20T05:35:14.392Z,76.93
2023-02-20T05:40:18.527Z,77.20
2023-02-20T05:45:21.811Z,77.02
2023-02-20T05:50:25.036Z,76.45
2023-02-20T05:55:28.029Z,76.78
2023-02-20T06:00:31.079Z,76.52
2023-02-20T06:05:34.659Z,75.89
2023-02-20T06:10:38.714Z,75.55
2023-02-20T06:15:41.693Z,76.07
2023-02-20T06:20:46.298Z,75.71
2023-02-20T06:25:53.632Z,75.19
2023-02-20T06:31:01.511Z,74.91
2023-02-20T06:36:06.537Z,74.93
2023-02-20T06:41:10.356Z,75.16
2023-02-20T06:46:13.781Z,75.10
2023-02-20T06:51:19.118Z,74.42
2023-02-20T06:56:37.672Z,73.85
2023-02-20T07:01:50.602Z,74.07
2023-02-20T07:07:02.252Z,73.41
2023-02-20T07:12:05.944Z,73.52
2023-02-20T07:17:09.245Z,73.44
2023-02-20T07:22:13.105Z,73.54
2023-02-20T07:27:16.753Z,73.50
2023-02-20T07:32:23.784Z,73.42
2023-02-20T07:37:29.870Z,73.24
2023-02-20T07:42:33.280Z,73.71
2023-02-20T07:47:44.088Z,73.38
2023-02-20T07:52:47.803Z,73.73
2023-02-20T07:57:55.185Z,73.32
2023-02-20T08:03:00.169Z,73.03
2023-02-20T08:08:05.538Z,72.95
2023-02-20T08:13:10.698Z,72.39
2023-02-20T08:18:23.175Z,72.43
2023-02-20T08:23:29.289Z,72.30
2023-02-20T08:28:33.444Z,71.79
2023-02-20T08:33:36.717Z,71.47
2023-02-20T08:38:39.885Z,71.53
2023-02-20T08:43:44.555Z,71.36
2023-02-20T08:48:48.211Z,70.98
2023-02-20T08:53:51.314Z,70.27
2023-02-20T08:58:54.473Z,69.88
2023-02-20T09:03:59.339Z,69.71
2023-02-20T09:09:03.208Z,69.42
2023-02-20T09:14:06.225Z,69.03
2023-02-20T09:19:10.153Z,68.76
2023-02-20T09:24:13.622Z,67.99
2023-02-20T09:29:17.112Z,67.98
2023-02-20T09:34:21.188Z,68.15
2023-02-20T09:39:24.453Z,67.31
2023-02-20T09:45:00.012Z,67.66
2023-02-20T09:50:11.260Z,67.44
2023-02-20T09:55:21.126Z,67.35
2023-02-20T10:05:38.567Z,66.37
2023-02-20T10:10:42.088Z,66.26
2023-02-20T10:21:36.830Z,67.04
2023-02-20T10:26:45.851Z,67.19
2023-02-20T10:31:58.757Z,67.45
2023-02-20T10:37:24.545Z,67.58
2023-02-20T10:47:53.332Z,67.57
2023-02-20T10:53:06.049Z,67.92
2023-02-20T10:58:18.273Z,66.79
2023-02-20T11:03:46.434Z,66.62
2023-02-20T11:08:50.346Z,66.44
2023-02-20T11:13:53.131Z,66.52
2023-02-20T11:19:07.140Z,66.40
2023-02-20T11:24:29.526Z,66.84
2023-02-20T11:29:40.291Z,66.83
2023-02-20T11:34:43.342Z,67.56
2023-02-20T11:39:48.606Z,67.27
2023-02-20T11:45:14.218Z,67.18
2023-02-20T11:50:22.877Z,67.58
2023-02-20T11:55:27.910Z,67.19
2023-02-20T12:00:44.149Z,66.81
2023-02-20T12:05:49.500Z,67.07
2023-02-20T12:10:56.318Z,67.38
2023-02-20T12:16:19.468Z,67.17
2023-02-20T12:26:55.690Z,67.18
2023-02-20T12:38:07.220Z,67.40
2023-02-20T12:43:28.260Z,67.46
2023-02-20T12:48:58.427Z,67.01
2023-02-20T12:54:27.506Z,67.69
2023-02-20T12:59:58.543Z,67.74
2023-02-20T13:05:06.707Z,68.02
2023-02-20T13:10:30.424Z,68.29
2023-02-20T13:15:48.826Z,68.43
2023-02-20T13:20:56.745Z,68.27
2023-02-20T13:26:00.011Z,68.65
2023-02-20T13:36:46.487Z,69.27
2023-02-20T13:57:54.798Z,69.92
2023-02-20T14:02:58.041Z,69.96
2023-02-20T14:08:00.948Z,70.37
2023-02-20T14:13:13.577Z,70.08
2023-02-20T14:18:25.844Z,70.40
2023-02-20T14:23:30.347Z,70.59
2023-02-20T14:28:36.814Z,71.04
2023-02-20T14:33:40.658Z,70.90
2023-02-20T14:44:00.342Z,72.14
2023-02-20T14:49:06.506Z,72.48
2023-02-20T14:54:30.072Z,71.72
2023-02-20T14:59:40.240Z,72.70
2023-02-20T15:05:08.279Z,72.28
2023-02-20T15:10:40.634Z,73.00
2023-02-20T15:15:47.079Z,73.01
2023-02-20T15:20:50.140Z,73.18
2023-02-20T15:25:54.173Z,73.55
2023-02-20T15:36:29.353Z,74.24
2023-02-20T15:41:34.876Z,73.65
2023-02-20T15:46:40.568Z,73.33
2023-02-20T15:51:45.357Z,74.02
2023-02-20T15:56:48.288Z,73.25
2023-02-20T16:01:51.225Z,73.50
2023-02-20T16:06:54.061Z,73.49
2023-02-20T16:11:56.724Z,73.14
2023-02-20T16:16:59.432Z,74.25
2023-02-20T16:22:04.754Z,73.77
2023-02-20T16:27:21.670Z,74.04
2023-02-20T16:32:28.673Z,73.86
2023-02-20T16:37:32.780Z,74.39
2023-02-20T16:42:38.875Z,74.18
2023-02-20T16:47:43.038Z,73.64
2023-02-20T16:52:49.027Z,74.21
2023-02-20T16:57:55.151Z,74.33
2023-02-20T17:02:58.426Z,73.66
2023-02-20T17:08:01.995Z,73.52
2023-02-20T17:13:12.536Z,73.75
2023-02-20T17:18:17.160Z,73.38
2023-02-20T17:23:24.817Z,73.24
2023-02-20T17:28:27.511Z,73.24
2023-02-20T17:33:30.323Z,73.10
2023-02-20T17:38:33.265Z,72.73
2023-02-20T17:43:40.054Z,72.33
2023-02-20T17:48:44.292Z,72.41
2023-02-20T17:53:49.545Z,72.28
2023-02-20T17:58:55.718Z,72.24
2023-02-20T18:03:58.321Z,71.89
2023-02-20T18:09:01.679Z,72.11
2023-02-20T18:14:06.067Z,71.48
2023-02-20T18:19:10.691Z,71.81
2023-02-20T18:24:14.495Z,71.57
2023-02-20T18:29:17.257Z,71.57
2023-02-20T18:34:21.763Z,70.93
2023-02-20T18:39:24.621Z,71.27
2023-02-20T18:44:28.089Z,70.93
2023-02-20T18:49:32.909Z,70.90
2023-02-20T18:54:36.637Z,70.46
2023-02-20T18:59:42.248Z,69.85
2023-02-20T19:04:44.906Z,69.79
2023-02-20T19:09:54.216Z,69.47
2023-02-20T19:14:56.793Z,68.98
2023-02-20T19:19:59.417Z,68.90
2023-02-20T19:25:04.042Z,68.38
2023-02-20T19:30:07.543Z,68.22
2023-02-20T19:35:10.857Z,68.05
2023-02-20T19:40:13.507Z,67.77
2023-02-20T19:45:16.348Z,67.67
2023-02-20T19:50:20.976Z,67.67
2023-02-20T19:55:24.525Z,67.23
2023-02-20T20:00:29.034Z,67.37
2023-02-20T20:05:31.777Z,67.15
2023-02-20T20:10:35.422Z,67.06
2023-02-20T20:15:38.294Z,66.92
2023-02-20T20:20:41.111Z,66.61
2023-02-20T20:25:43.867Z,66.51
2023-02-20T20:30:46.724Z,66.21
2023-02-20T20:35:49.378Z,66.17
2023-02-20T20:40:52.087Z,66.51
2023-02-20T20:45:54.692Z,65.98
2023-02-20T20:50:57.215Z,66.05
2023-02-20T20:56:00.469Z,65.80
2023-02-20T21:01:03.064Z,65.65
2023-02-20T21:06:05.923Z,65.69
2023-02-20T21:11:08.763Z,66.25
2023-02-20T21:16:11.456Z,66.08
2023-02-20T21:21:14.460Z,65.75
2023-02-20T21:26:17.224Z,66.00
2023-02-20T21:31:20.850Z,65.79
2023-02-20T21:36:24.713Z,66.26
2023-02-20T21:41:47.454Z,66.64
2023-02-20T21:46:51.492Z,66.38
2023-02-20T21:51:54.816Z,66.33
2023-02-20T21:56:59.006Z,66.35
2023-02-20T22:07:34.093Z,66.78
2023-02-20T22:12:56.844Z,67.40
2023-02-20T22:18:19.457Z,67.47
2023-02-20T22:23:41.913Z,67.29
2023-02-20T22:29:04.562Z,67.62
2023-02-20T22:34:26.967Z,68.10
2023-02-20T22:39:50.785Z,68.34
2023-02-20T22:45:13.315Z,68.30
2023-02-20T22:50:36.350Z,68.41
2023-02-20T22:55:58.779Z,68.82
2023-02-20T23:01:21.524Z,68.42
2023-02-20T23:06:44.703Z,68.13
2023-02-20T23:12:07.193Z,68.38
2023-02-20T23:17:36.180Z,68.53
2023-02-20T23:22:59.482Z,68.34
2023-02-20T23:28:28.966Z,68.19
2023-02-20T23:33:58.880Z,67.68
2023-02-20T23:39:21.238Z,67.57
2023-02-20T23:44:43.628Z,67.28
2023-02-20T23:50:06.085Z,67.43
2023-02-20T23:55:28.432Z,67.40
